Time;durP1;ratioP1;P1;durP2;ratioP2;P2;SDS_P1;SDS_P2;PMS_P1;PMS_P2;Temp;Humidity;BMP_temperature;BMP_pressure;BME280_temperature;BME280_humidity;BME280_pressure;Samples;Min_cycle;Max_cycle;Signal;HPM_P1;HPM_P2
2021/06/15 00:01:04;;;;;;;0.28;0.20;;;;;;;30.94;34.96;96883.97;4959739;28;20054;-35
2021/06/15 00:03:29;;;;;;;0.20;0.20;;;;;;;30.93;35.09;96874.31;4960347;28;20023;-33
2021/06/15 00:05:54;;;;;;;0.20;0.20;;;;;;;30.93;34.90;96868.22;4959236;28;20027;-35
2021/06/15 00:08:20;;;;;;;0.40;0.30;;;;;;;30.93;35.24;96873.50;4963877;28;20039;-34
2021/06/15 00:10:46;;;;;;;0.30;0.30;;;;;;;30.92;34.70;96877.94;4957194;28;20129;-34
2021/06/15 00:13:11;;;;;;;1.08;0.20;;;;;;;30.92;35.28;96869.13;4961947;28;20067;-36
2021/06/15 00:15:37;;;;;;;0.10;0.10;;;;;;;30.92;35.28;96863.84;4960376;28;20659;-33
2021/06/15 00:18:03;;;;;;;0.20;0.20;;;;;;;30.92;34.79;96862.06;4961074;28;20030;-33
2021/06/15 00:20:28;;;;;;;0.43;0.20;;;;;;;30.92;34.77;96864.72;4960105;28;20044;-31
2021/06/15 00:22:54;;;;;;;0.10;0.10;;;;;;;30.92;34.60;96866.50;4954123;28;20046;-36
2021/06/15 00:25:19;;;;;;;0.20;0.20;;;;;;;30.92;35.41;96864.72;4953980;28;20026;-36
2021/06/15 00:27:46;;;;;;;0.10;0.10;;;;;;;30.91;34.77;96865.66;4988665;28;20037;-35
2021/06/15 00:30:13;;;;;;;0.22;0.22;;;;;;;30.90;35.04;96866.63;4955445;28;20027;-34
2021/06/15 00:32:39;;;;;;;0.25;0.20;;;;;;;30.90;35.02;96861.34;4953067;28;20037;-36
2021/06/15 00:35:05;;;;;;;0.30;0.30;;;;;;;30.90;34.67;96858.69;4952289;28;20599;-32
2021/06/15 00:37:30;;;;;;;0.20;0.20;;;;;;;30.90;35.24;96864.00;4956773;28;20030;-36
2021/06/15 00:39:55;;;;;;;0.22;0.22;;;;;;;30.89;35.29;96856.97;4957137;28;20377;-35
2021/06/15 00:42:23;;;;;;;0.17;0.17;;;;;;;30.89;35.28;96854.34;4988626;28;20026;-32
2021/06/15 00:44:51;;;;;;;0.20;0.20;;;;;;;30.89;34.95;96856.97;4956248;28;20031;-34
2021/06/15 00:47:17;;;;;;;0.25;0.25;;;;;;;30.89;35.14;96856.97;4957348;28;20795;-36
2021/06/15 00:49:42;;;;;;;0.20;0.20;;;;;;;30.88;35.19;96855.31;4961550;28;20037;-33
2021/06/15 00:52:08;;;;;;;0.22;0.22;;;;;;;30.88;34.66;96850.00;4942396;28;20299;-36
2021/06/15 00:54:33;;;;;;;0.65;0.40;;;;;;;30.88;35.42;96850.00;4959438;28;20498;-33
2021/06/15 00:56:59;;;;;;;0.22;0.20;;;;;;;30.89;34.75;96851.69;4956642;28;20635;-38
2021/06/15 00:59:24;;;;;;;0.22;0.22;;;;;;;30.88;35.22;96853.50;4958593;28;20062;-37
2021/06/15 01:01:49;;;;;;;0.13;0.13;;;;;;;30.88;34.96;96850.00;4953519;28;20042;-35
2021/06/15 01:04:16;;;;;;;0.20;0.20;;;;;;;30.88;35.04;96850.00;4954481;28;20070;-35
2021/06/15 01:06:48;;;;;;;0.32;0.30;;;;;;;30.88;34.59;96844.72;4959525;28;20121;-34
2021/06/15 01:09:21;;;;;;;0.30;0.30;;;;;;;30.87;34.76;96843.03;4958390;28;20129;-37
2021/06/15 01:12:12;;;;;;;0.30;0.10;;;;;;;30.86;34.82;96841.34;4955156;28;20026;-31
2021/06/15 01:14:54;;;;;;;0.25;0.22;;;;;;;30.85;34.91;96848.44;4956440;28;20463;-36
2021/06/15 01:17:29;;;;;;;0.20;0.17;;;;;;;30.84;35.17;96849.41;4961851;28;20035;-34
2021/06/15 01:20:15;;;;;;;0.50;0.30;;;;;;;30.85;35.29;96844.94;4979698;28;20031;-35
2021/06/15 01:22:43;;;;;;;0.30;0.30;;;;;;;30.84;34.77;96837.97;4957915;28;20040;-35
2021/06/15 01:25:41;;;;;;;0.20;0.20;;;;;;;30.84;34.81;96841.47;4956336;28;20037;-36
2021/06/15 01:28:12;;;;;;;0.20;0.20;;;;;;;30.84;34.84;96838.81;4955362;28;20077;-33
2021/06/15 01:31:08;;;;;;;0.10;0.10;;;;;;;30.83;34.72;96828.34;4985735;28;20704;-32
2021/06/15 01:33:36;;;;;;;0.30;0.20;;;;;;;30.83;35.11;96825.69;4943497;28;20050;-37
2021/06/15 01:36:01;;;;;;;0.30;0.30;;;;;;;30.83;35.12;96834.50;4961524;28;20054;-34
2021/06/15 01:38:30;;;;;;;0.35;0.25;;;;;;;30.83;34.77;96836.28;4973211;28;20031;-33
2021/06/15 01:41:03;;;;;;;0.20;0.20;;;;;;;30.79;35.19;96830.38;4955478;28;20820;-32
2021/06/15 01:43:31;;;;;;;0.10;0.10;;;;;;;30.82;34.88;96839.88;4977049;28;20034;-33
2021/06/15 01:45:56;;;;;;;0.25;0.10;;;;;;;30.83;34.82;96841.56;4971412;28;20023;-35
2021/06/15 01:48:33;;;;;;;0.10;0.10;;;;;;;30.81;35.40;96832.91;4941883;28;20023;-36
2021/06/15 01:50:59;;;;;;;0.10;0.10;;;;;;;30.82;34.95;96839.88;4969843;28;20039;-38
2021/06/15 01:53:24;;;;;;;0.20;0.20;;;;;;;30.82;34.65;96834.59;4960987;28;20046;-36
2021/06/15 01:55:52;;;;;;;0.20;0.20;;;;;;;30.82;34.92;96837.25;4955093;28;20829;-33
2021/06/15 01:58:17;;;;;;;0.20;0.20;;;;;;;30.82;34.61;96829.31;4953714;28;20052;-35
2021/06/15 02:00:43;;;;;;;0.38;0.35;;;;;;;30.82;34.73;96826.66;4936077;28;20698;-35
2021/06/15 02:03:08;;;;;;;0.35;0.20;;;;;;;30.81;34.94;96836.38;4984493;28;20030;-29
2021/06/15 02:05:36;;;;;;;0.30;0.30;;;;;;;30.78;35.14;96820.72;4942302;28;20039;-37
2021/06/15 02:08:02;;;;;;;0.15;0.15;;;;;;;30.81;34.66;96825.81;4955341;28;20116;-33
2021/06/15 02:10:28;;;;;;;0.20;0.20;;;;;;;30.81;35.05;96827.63;4951972;28;20033;-33
2021/06/15 02:12:53;;;;;;;0.45;0.20;;;;;;;30.81;35.10;96822.34;4982603;28;20116;-34
2021/06/15 02:15:19;;;;;;;0.30;0.20;;;;;;;30.81;35.17;96822.34;4956895;28;20025;-30
2021/06/15 02:17:45;;;;;;;0.17;0.17;;;;;;;30.81;35.09;96817.03;4953900;28;20034;-30
2021/06/15 02:20:12;;;;;;;0.20;0.20;;;;;;;30.81;34.94;96814.41;4955493;28;20437;-32
2021/06/15 02:22:37;;;;;;;0.20;0.20;;;;;;;30.81;34.78;96817.88;4958677;28;20094;-35
2021/06/15 02:25:03;;;;;;;0.20;0.20;;;;;;;30.81;35.25;96819.69;4941119;28;21964;-35
2021/06/15 02:27:28;;;;;;;0.28;0.20;;;;;;;30.80;35.24;96823.28;4940651;28;20038;-33
2021/06/15 02:29:55;;;;;;;0.20;0.20;;;;;;;30.80;35.34;96825.91;4958923;28;20042;-36
2021/06/15 02:32:28;;;;;;;0.20;0.20;;;;;;;30.79;35.04;96829.53;4940999;28;20369;-34
2021/06/15 02:34:53;;;;;;;0.20;0.20;;;;;;;30.79;35.06;96825.09;4951215;28;20033;-34
2021/06/15 02:37:26;;;;;;;0.20;0.20;;;;;;;30.79;34.79;96817.16;4942421;28;20030;-34
2021/06/15 02:39:51;;;;;;;0.43;0.30;;;;;;;30.79;35.14;96818.94;4957048;28;20022;-34
2021/06/15 02:42:16;;;;;;;0.30;0.30;;;;;;;30.79;34.95;96819.78;4940858;28;20595;-35
2021/06/15 02:44:43;;;;;;;0.30;0.30;;;;;;;30.79;34.96;96826.88;4953259;28;20034;-36
2021/06/15 02:47:09;;;;;;;0.10;0.10;;;;;;;30.78;34.80;96823.38;4952513;28;20018;-35
2021/06/15 02:49:42;;;;;;;0.10;0.10;;;;;;;30.79;34.60;96813.66;4943817;28;20689;-36
2021/06/15 02:52:18;;;;;;;0.98;0.30;;;;;;;30.78;34.87;96818.09;4955192;28;20701;-36
2021/06/15 02:54:50;;;;;;;0.35;0.35;;;;;;;30.77;34.42;96814.63;4958345;28;20642;-32
2021/06/15 02:57:15;;;;;;;0.20;0.20;;;;;;;30.76;35.01;96810.28;4960187;28;20393;-31
2021/06/15 02:59:41;;;;;;;0.35;0.20;;;;;;;30.77;34.80;96811.97;4942472;28;20045;-32
2021/06/15 03:02:06;;;;;;;0.20;0.20;;;;;;;30.76;34.48;96820.88;4940578;28;20043;-36
2021/06/15 03:04:32;;;;;;;0.28;0.28;;;;;;;30.75;34.96;96819.16;4955609;28;20540;-34
2021/06/15 03:06:57;;;;;;;0.17;0.17;;;;;;;30.75;35.17;96819.16;4959401;28;20031;-36
2021/06/15 03:09:23;;;;;;;0.25;0.10;;;;;;;30.75;34.69;96811.22;4953444;28;20031;-30
2021/06/15 03:11:52;;;;;;;0.50;0.22;;;;;;;30.75;34.81;96808.56;4983644;28;20113;-35
2021/06/15 03:14:25;;;;;;;0.20;0.20;;;;;;;30.76;34.86;96822.66;4952836;28;20629;-35
2021/06/15 03:16:51;;;;;;;0.28;0.28;;;;;;;30.75;34.82;96818.34;4957118;28;20034;-35
2021/06/15 03:19:21;;;;;;;0.10;0.10;;;;;;;30.76;34.96;96823.50;4942126;28;20540;-33
2021/06/15 03:22:10;;;;;;;0.20;0.20;;;;;;;30.74;35.06;96825.41;4935686;28;20122;-36
2021/06/15 03:24:39;;;;;;;0.20;0.20;;;;;;;30.75;34.79;96823.63;4975616;28;20030;-36
2021/06/15 03:27:04;;;;;;;0.40;0.20;;;;;;;30.75;34.88;96820.97;4960788;28;20533;-30
2021/06/15 03:29:32;;;;;;;0.35;0.20;;;;;;;30.74;35.08;96816.66;4956765;28;20050;-32
2021/06/15 03:31:59;;;;;;;0.28;0.28;;;;;;;30.73;35.25;96815.78;4975837;28;20034;-33
2021/06/15 03:34:25;;;;;;;0.20;0.20;;;;;;;30.73;35.02;96813.16;4954656;28;20089;-32
2021/06/15 03:36:50;;;;;;;0.30;0.30;;;;;;;30.73;35.05;96821.09;4958786;28;20145;-33
2021/06/15 03:39:16;;;;;;;0.10;0.10;;;;;;;30.73;34.61;96815.78;4984936;28;20037;-35
2021/06/15 03:41:41;;;;;;;0.20;0.20;;;;;;;30.72;34.58;96813.25;4942327;28;20048;-34
2021/06/15 03:44:09;;;;;;;0.75;0.20;;;;;;;30.73;35.05;96821.09;4960108;28;20042;-35
2021/06/15 03:46:34;;;;;;;0.20;0.20;;;;;;;30.73;34.68;96815.78;4943472;28;20097;-34
2021/06/15 03:49:01;;;;;;;0.63;0.15;;;;;;;30.72;35.21;96816.75;4950001;28;20038;-37
2021/06/15 03:51:33;;;;;;;0.85;0.30;;;;;;;30.72;34.88;96819.41;4952449;28;20031;-31
2021/06/15 03:54:06;;;;;;;0.30;0.20;;;;;;;30.71;35.08;96815.00;4956563;28;20778;-35
2021/06/15 03:56:35;;;;;;;0.30;0.30;;;;;;;30.72;35.15;96824.69;4982156;28;20034;-33
2021/06/15 03:59:02;;;;;;;0.20;0.20;;;;;;;30.72;34.80;96829.13;4958878;28;20026;-33
2021/06/15 04:01:28;;;;;;;1.20;0.30;;;;;;;30.71;34.74;96825.59;4945840;28;20273;-33
2021/06/15 04:03:53;;;;;;;0.52;0.40;;;;;;;30.71;34.94;96827.41;4942316;28;20035;-36
2021/06/15 04:06:19;;;;;;;0.20;0.20;;;;;;;30.71;35.04;96828.25;4941775;28;20030;-34
2021/06/15 04:08:44;;;;;;;0.10;0.10;;;;;;;30.70;35.02;96831.84;4946152;28;20038;-37
2021/06/15 04:11:10;;;;;;;0.40;0.30;;;;;;;30.70;34.85;96826.56;4945378;28;20130;-35
2021/06/15 04:13:36;;;;;;;0.40;0.17;;;;;;;30.72;34.83;96829.13;4957821;28;20027;-35
2021/06/15 04:16:02;;;;;;;0.10;0.10;;;;;;;30.70;35.20;96826.56;4943783;28;20041;-32
2021/06/15 04:18:27;;;;;;;0.20;0.20;;;;;;;30.71;34.74;96830.88;4973109;28;20600;-36
2021/06/15 04:20:54;;;;;;;0.38;0.20;;;;;;;30.72;35.36;96829.13;4971055;28;20022;-37
2021/06/15 04:23:22;;;;;;;0.20;0.20;;;;;;;30.71;35.01;96833.53;4961219;28;20097;-35
2021/06/15 04:25:47;;;;;;;0.20;0.20;;;;;;;30.71;35.20;96833.53;4961766;28;20113;-35
2021/06/15 04:28:13;;;;;;;0.32;0.32;;;;;;;30.71;35.31;96833.53;4954106;28;20041;-36
2021/06/15 04:30:40;;;;;;;0.15;0.15;;;;;;;30.72;35.42;96832.63;4963476;28;20410;-36
2021/06/15 04:33:08;;;;;;;0.20;0.20;;;;;;;30.71;35.00;96830.88;4955133;28;20035;-37
2021/06/15 04:35:41;;;;;;;0.20;0.20;;;;;;;30.72;35.39;96831.78;4952694;28;20038;-34
2021/06/15 04:38:23;;;;;;;0.20;0.20;;;;;;;30.73;35.03;96831.66;4961044;28;20062;-38
2021/06/15 04:40:50;;;;;;;0.10;0.10;;;;;;;30.73;35.39;96831.66;4960365;28;20493;-34
2021/06/15 04:43:18;;;;;;;0.20;0.20;;;;;;;30.74;35.06;96837.81;4960873;28;20232;-37
2021/06/15 04:45:44;;;;;;;0.20;0.20;;;;;;;30.73;35.23;96836.97;4955176;28;20041;-37
2021/06/15 04:48:11;;;;;;;0.20;0.20;;;;;;;30.74;34.97;96838.63;4944696;28;20030;-36
2021/06/15 04:50:37;;;;;;;0.20;0.20;;;;;;;30.74;35.67;96836.00;4955041;28;20031;-35
2021/06/15 04:53:03;;;;;;;0.10;0.10;;;;;;;30.74;35.10;96838.63;4955600;28;20049;-33
2021/06/15 04:55:31;;;;;;;0.30;0.30;;;;;;;30.74;34.91;96836.00;4989981;28;20042;-36
2021/06/15 04:57:57;;;;;;;0.30;0.30;;;;;;;30.74;35.45;96837.81;4956617;28;20073;-34
2021/06/15 05:00:23;;;;;;;0.25;0.25;;;;;;;30.75;35.09;96840.31;4944771;28;20763;-30
2021/06/15 05:02:49;;;;;;;0.20;0.20;;;;;;;30.75;35.58;96842.13;4943535;28;20057;-33
2021/06/15 05:05:14;;;;;;;0.22;0.22;;;;;;;30.75;35.28;96839.50;4936883;28;20038;-38
2021/06/15 05:07:40;;;;;;;0.10;0.10;;;;;;;30.76;35.23;96841.19;4946626;28;20035;-36
2021/06/15 05:10:06;;;;;;;0.40;0.30;;;;;;;30.75;35.53;96850.91;4988065;28;20041;-34
2021/06/15 05:12:42;;;;;;;0.17;0.17;;;;;;;30.75;35.19;96850.91;4955962;28;20178;-32
2021/06/15 05:15:09;;;;;;;0.35;0.10;;;;;;;30.76;35.25;96852.63;4988309;28;20066;-35
2021/06/15 05:17:35;;;;;;;0.68;0.30;;;;;;;30.76;34.99;96847.31;4954720;28;20617;-36
2021/06/15 05:20:02;;;;;;;0.20;0.20;;;;;;;30.77;35.17;96856.94;4944209;28;22218;-34
2021/06/15 05:22:29;;;;;;;0.55;0.30;;;;;;;30.77;35.39;96854.28;4954991;28;20026;-33
2021/06/15 05:24:58;;;;;;;0.17;0.10;;;;;;;30.75;35.59;96840.31;4945233;28;20037;-38
2021/06/15 05:27:25;;;;;;;0.40;0.20;;;;;;;30.77;35.42;96849.00;4952857;28;20023;-39
2021/06/15 05:29:51;;;;;;;0.45;0.20;;;;;;;30.78;35.06;96855.13;4954820;28;20531;-33
2021/06/15 05:32:16;;;;;;;1.23;0.30;;;;;;;30.79;34.85;96850.69;4942625;28;20046;-37
2021/06/15 05:34:42;;;;;;;0.25;0.20;;;;;;;30.77;34.96;96854.28;4955717;28;20030;-34
2021/06/15 05:37:07;;;;;;;0.20;0.20;;;;;;;30.79;35.41;96856.84;4954785;28;20030;-32
2021/06/15 05:39:33;;;;;;;0.40;0.30;;;;;;;30.79;34.95;96850.69;4985354;28;20038;-33
2021/06/15 05:41:58;;;;;;;0.60;0.30;;;;;;;30.79;35.06;96854.19;4952775;28;20386;-32
2021/06/15 05:44:27;;;;;;;0.30;0.20;;;;;;;30.79;34.87;96848.03;4955991;28;20401;-35
2021/06/15 05:46:52;;;;;;;1.05;0.20;;;;;;;30.80;35.18;96850.56;4953554;28;20093;-31
2021/06/15 05:49:18;;;;;;;0.22;0.22;;;;;;;30.79;34.86;96853.34;4987095;28;20755;-34
2021/06/15 05:51:43;;;;;;;0.20;0.20;;;;;;;30.81;34.71;96854.09;4957873;28;20033;-34
2021/06/15 05:54:08;;;;;;;2.15;0.40;;;;;;;30.81;35.16;96848.78;4955243;28;20054;-35
2021/06/15 05:56:34;;;;;;;0.20;0.20;;;;;;;30.81;35.26;96854.09;4952635;28;20093;-35
2021/06/15 05:58:59;;;;;;;0.20;0.20;;;;;;;30.81;34.82;96854.09;4955880;28;20139;-33
2021/06/15 06:01:27;;;;;;;0.40;0.20;;;;;;;30.81;35.54;96854.09;4952265;28;20702;-34
2021/06/15 06:04:13;;;;;;;0.20;0.20;;;;;;;30.81;35.22;96854.91;4955405;28;20031;-31
2021/06/15 06:09:23;;;;;;;0.50;0.20;;;;;;;30.81;35.13;96846.97;4955053;28;20955;-32
2021/06/15 06:11:48;;;;;;;0.28;0.25;;;;;;;30.82;35.05;96847.81;4955263;28;20027;-33
2021/06/15 06:14:14;;;;;;;0.30;0.30;;;;;;;30.82;34.86;96848.66;4954637;28;20035;-33
2021/06/15 06:16:42;;;;;;;0.30;0.30;;;;;;;30.83;35.45;96852.16;4953593;28;20034;-35
2021/06/15 06:19:08;;;;;;;0.20;0.20;;;;;;;30.84;34.91;96853.84;4975136;28;20062;-38
2021/06/15 06:21:34;;;;;;;0.20;0.20;;;;;;;30.85;35.14;96855.53;4955557;28;20041;-35
2021/06/15 06:24:00;;;;;;;0.40;0.40;;;;;;;30.85;34.94;96850.22;4959523;28;20023;-34
2021/06/15 06:26:26;;;;;;;0.40;0.30;;;;;;;30.86;34.90;96857.22;4954930;28;20094;-35
2021/06/15 06:28:52;;;;;;;0.30;0.30;;;;;;;30.86;35.44;96851.94;4951512;28;20030;-38
2021/06/15 06:31:19;;;;;;;0.20;0.20;;;;;;;30.86;35.21;96851.94;4958481;28;20050;-37
2021/06/15 06:33:45;;;;;;;0.38;0.30;;;;;;;30.87;34.98;96854.47;4955408;28;20034;-36
2021/06/15 06:36:10;;;;;;;0.13;0.13;;;;;;;30.88;35.44;96852.66;4944631;28;20191;-34
2021/06/15 06:38:36;;;;;;;0.30;0.30;;;;;;;30.88;35.00;96850.88;4943633;28;20760;-36
2021/06/15 06:41:03;;;;;;;0.30;0.30;;;;;;;30.89;34.88;96856.97;4953266;28;20105;-35
2021/06/15 06:43:29;;;;;;;0.57;0.20;;;;;;;30.91;35.37;96849.78;4943000;28;20581;-34
2021/06/15 06:45:54;;;;;;;0.20;0.20;;;;;;;30.92;35.27;96850.63;4955123;28;20035;-33
2021/06/15 06:48:20;;;;;;;0.40;0.40;;;;;;;30.92;35.06;96850.63;4944032;28;20042;-34
2021/06/15 06:50:45;;;;;;;0.30;0.30;;;;;;;30.92;35.41;96846.19;4954100;28;20681;-36
2021/06/15 06:53:11;;;;;;;0.20;0.20;;;;;;;30.92;35.37;96854.13;4953813;28;20037;-34
2021/06/15 06:55:36;;;;;;;0.20;0.20;;;;;;;30.92;35.33;96842.69;4951477;28;20039;-33
2021/06/15 06:58:02;;;;;;;0.40;0.20;;;;;;;30.95;35.33;96845.97;4956599;28;20039;-32
2021/06/15 07:00:27;;;;;;;0.20;0.20;;;;;;;30.96;35.01;96845.00;4985440;28;20047;-37
2021/06/15 07:02:53;;;;;;;0.85;0.30;;;;;;;30.96;34.90;96846.78;4958103;28;20034;-35
2021/06/15 07:05:18;;;;;;;0.30;0.30;;;;;;;30.97;34.86;96844.03;4939186;28;20053;-35
2021/06/15 07:07:46;;;;;;;0.30;0.30;;;;;;;31.00;35.17;96849.13;4953651;28;20789;-37
2021/06/15 07:10:12;;;;;;;0.20;0.20;;;;;;;31.01;35.42;96850.78;4954268;28;20030;-35
2021/06/15 07:12:37;;;;;;;0.20;0.20;;;;;;;31.02;34.88;96847.19;4952394;28;20807;-33
2021/06/15 07:15:04;;;;;;;0.20;0.20;;;;;;;31.04;35.14;96855.00;4943138;28;20831;-37
2021/06/15 07:17:30;;;;;;;0.52;0.30;;;;;;;31.06;35.33;96852.25;4959247;28;20034;-38
2021/06/15 07:19:55;;;;;;;0.43;0.38;;;;;;;31.05;35.29;96856.72;4948563;28;20035;-34
2021/06/15 07:22:20;;;;;;;0.30;0.30;;;;;;;31.06;35.46;96847.81;4952250;28;20038;-34
2021/06/15 07:24:46;;;;;;;0.73;0.20;;;;;;;31.07;35.35;96849.50;4951552;28;20627;-34
2021/06/15 07:27:11;;;;;;;0.30;0.30;;;;;;;31.09;34.69;96846.75;4949440;28;20525;-32
2021/06/15 07:29:37;;;;;;;0.30;0.30;;;;;;;31.11;35.45;96844.81;4956248;28;20046;-35
2021/06/15 07:32:02;;;;;;;0.30;0.30;;;;;;;31.10;34.89;96835.19;4956043;28;20038;-38
2021/06/15 07:34:28;;;;;;;0.30;0.30;;;;;;;31.12;34.93;96846.53;4962550;28;20176;-35
2021/06/15 07:36:53;;;;;;;0.20;0.20;;;;;;;31.12;35.46;96846.53;4958215;28;20022;-39
2021/06/15 07:39:19;;;;;;;0.30;0.30;;;;;;;31.13;34.65;96849.03;4956562;28;20731;-36
2021/06/15 07:41:44;;;;;;;0.32;0.20;;;;;;;31.16;35.14;96853.25;4953126;28;20038;-36
2021/06/15 07:44:10;;;;;;;0.20;0.20;;;;;;;31.16;35.46;96847.94;4991643;28;20690;-36
2021/06/15 07:46:35;;;;;;;0.30;0.30;;;;;;;31.18;34.96;96843.41;4958178;28;20030;-33
2021/06/15 07:49:01;;;;;;;0.20;0.20;;;;;;;31.19;35.15;96845.09;4954816;28;20027;-36
2021/06/15 07:51:26;;;;;;;0.30;0.30;;;;;;;31.21;34.72;96847.63;4957747;28;20022;-35
2021/06/15 07:53:52;;;;;;;0.35;0.35;;;;;;;31.21;34.84;96843.19;4961737;28;20101;-30
2021/06/15 07:56:17;;;;;;;0.40;0.38;;;;;;;31.21;35.26;96848.47;4955792;28;20037;-34
2021/06/15 07:58:43;;;;;;;0.20;0.20;;;;;;;31.23;34.79;96849.19;4957514;28;20108;-37
2021/06/15 08:01:08;;;;;;;0.25;0.25;;;;;;;31.24;34.97;96850.88;4955972;28;20038;-33
2021/06/15 08:03:33;;;;;;;0.75;0.20;;;;;;;31.25;35.33;96847.28;4957748;28;20157;-32
2021/06/15 08:05:59;;;;;;;0.30;0.30;;;;;;;31.27;35.41;96850.66;4959608;28;20023;-34
2021/06/15 08:08:24;;;;;;;0.40;0.40;;;;;;;31.28;34.65;96851.50;4952727;28;20034;-33
2021/06/15 08:10:50;;;;;;;0.30;0.20;;;;;;;31.28;35.13;96847.03;4987567;28;20038;-35
2021/06/15 08:13:15;;;;;;;0.30;0.30;;;;;;;31.30;35.24;96849.56;4953797;28;20033;-36
2021/06/15 08:15:41;;;;;;;0.20;0.20;;;;;;;31.31;34.89;96845.16;4958370;28;20273;-36
2021/06/15 08:18:06;;;;;;;0.20;0.20;;;;;;;31.33;35.27;96845.88;4953098;28;20034;-31
2021/06/15 08:20:32;;;;;;;0.20;0.20;;;;;;;31.34;34.95;96847.56;4956924;28;20088;-37
2021/06/15 08:22:59;;;;;;;0.20;0.20;;;;;;;31.34;34.83;96843.13;4953915;28;20130;-37
2021/06/15 08:25:24;;;;;;;0.38;0.30;;;;;;;31.36;35.09;96843.84;4956586;28;20026;-34
2021/06/15 08:27:50;;;;;;;0.45;0.25;;;;;;;31.36;34.68;96849.13;4955298;28;20026;-35
2021/06/15 08:30:15;;;;;;;0.30;0.30;;;;;;;31.36;35.15;96848.31;4957869;28;20104;-33
2021/06/15 08:32:42;;;;;;;0.28;0.28;;;;;;;31.38;34.87;96841.06;4957932;28;20180;-34
2021/06/15 08:35:08;;;;;;;0.25;0.25;;;;;;;31.38;35.15;96846.38;4957991;28;20065;-31
2021/06/15 08:37:37;;;;;;;0.20;0.20;;;;;;;31.39;35.36;96842.78;4984876;28;20421;-31
2021/06/15 08:40:04;;;;;;;0.10;0.10;;;;;;;31.39;34.71;96840.97;4957290;28;20030;-34
2021/06/15 08:42:29;;;;;;;0.17;0.17;;;;;;;31.40;35.35;96847.13;4953662;28;20030;-32
2021/06/15 08:44:55;;;;;;;0.20;0.20;;;;;;;31.40;34.77;96844.47;4956492;28;20031;-34
2021/06/15 08:47:20;;;;;;;0.30;0.30;;;;;;;31.42;34.92;96842.53;4987373;28;20759;-35
2021/06/15 08:49:46;;;;;;;0.30;0.30;;;;;;;31.42;34.77;96842.53;4954208;28;20485;-36
2021/06/15 08:52:11;;;;;;;0.30;0.30;;;;;;;31.43;34.71;96844.22;4954993;28;20029;-32
2021/06/15 08:54:37;;;;;;;0.20;0.20;;;;;;;31.44;35.50;96845.06;4954934;28;20120;-35
2021/06/15 08:57:03;;;;;;;0.20;0.20;;;;;;;31.44;35.21;96848.56;4954316;28;20312;-34
2021/06/15 08:59:31;;;;;;;0.20;0.20;;;;;;;31.45;35.11;96852.03;4939747;28;20524;-30
2021/06/15 09:02:06;;;;;;;0.20;0.20;;;;;;;31.46;35.30;96848.47;4956903;28;20069;-35
2021/06/15 09:04:33;;;;;;;1.00;0.30;;;;;;;31.47;35.31;96844.84;4953984;28;20137;-36
2021/06/15 09:06:58;;;;;;;0.20;0.20;;;;;;;31.48;35.47;96846.53;4955229;28;20520;-35
2021/06/15 09:09:56;;;;;;;0.30;0.30;;;;;;;31.48;35.22;96842.09;4985613;28;20041;-38
2021/06/15 09:12:22;;;;;;;0.25;0.25;;;;;;;31.49;35.24;96846.41;4947507;28;20046;-31
2021/06/15 09:14:48;;;;;;;0.32;0.32;;;;;;;31.50;34.83;96845.44;4953358;28;20034;-34
2021/06/15 09:17:14;;;;;;;0.43;0.20;;;;;;;31.51;34.90;96841.84;4955479;28;20039;-35
2021/06/15 09:19:41;;;;;;;0.55;0.40;;;;;;;31.53;35.05;96852.31;4956382;28;20502;-32
2021/06/15 09:22:06;;;;;;;0.40;0.20;;;;;;;31.55;34.87;96850.41;4952502;28;20027;-35
2021/06/15 09:24:32;;;;;;;0.43;0.38;;;;;;;31.50;35.06;96845.44;4957915;28;20041;-35
2021/06/15 09:27:10;;;;;;;0.20;0.20;;;;;;;31.57;35.08;96860.88;4959378;28;20037;-34
2021/06/15 09:29:52;;;;;;;0.22;0.20;;;;;;;31.57;34.85;96856.41;4954451;28;21100;-31
2021/06/15 09:32:29;;;;;;;0.20;0.20;;;;;;;31.58;35.05;96858.09;4941933;28;20038;-35
2021/06/15 09:34:56;;;;;;;0.22;0.20;;;;;;;31.59;34.71;96859.81;4984969;28;20056;-35
2021/06/15 09:37:35;;;;;;;0.52;0.30;;;;;;;31.57;35.00;96863.53;4951719;28;20031;-31
2021/06/15 09:40:03;;;;;;;0.10;0.10;;;;;;;31.62;34.83;96864.03;4954239;28;20095;-35
2021/06/15 09:42:28;;;;;;;0.30;0.30;;;;;;;31.62;35.38;96864.03;4955284;28;20771;-32
2021/06/15 09:44:54;;;;;;;0.70;0.47;;;;;;;31.63;35.57;96863.91;4954258;28;20033;-38
2021/06/15 09:47:23;;;;;;;0.43;0.30;;;;;;;31.65;35.31;96869.06;4954072;28;20031;-34
2021/06/15 09:49:49;;;;;;;0.30;0.30;;;;;;;31.66;35.27;96866.31;4949267;28;20027;-32
2021/06/15 09:52:27;;;;;;;0.52;0.35;;;;;;;31.69;35.10;96865.22;4942987;28;20053;-35
2021/06/15 09:54:57;;;;;;;0.28;0.28;;;;;;;31.71;35.20;96863.31;4954828;28;20046;-36
2021/06/15 09:57:33;;;;;;;0.10;0.10;;;;;;;31.72;35.18;96865.00;4953817;28;20031;-33
2021/06/15 10:00:04;;;;;;;0.20;0.20;;;;;;;31.73;35.39;96866.69;4985547;28;20037;-39
2021/06/15 10:02:30;;;;;;;0.20;0.20;;;;;;;31.75;35.26;96869.22;4955767;28;20047;-32
2021/06/15 10:04:55;;;;;;;0.55;0.30;;;;;;;31.78;34.94;96868.97;4953331;28;20027;-36
2021/06/15 10:07:28;;;;;;;0.40;0.30;;;;;;;31.79;34.73;96866.22;4956237;28;20599;-35
2021/06/15 10:09:55;;;;;;;0.20;0.20;;;;;;;31.81;35.06;96869.59;4984855;28;20675;-33
2021/06/15 10:12:20;;;;;;;0.30;0.30;;;;;;;31.81;35.42;96864.28;4981334;28;20788;-35
2021/06/15 10:14:46;;;;;;;0.55;0.30;;;;;;;31.84;34.93;96865.84;4953401;28;20031;-34
2021/06/15 10:17:14;;;;;;;1.10;0.20;;;;;;;31.85;35.11;96867.53;4953493;28;20030;-34
2021/06/15 10:19:40;;;;;;;0.20;0.20;;;;;;;31.85;35.21;96864.06;4957181;28;20065;-36
2021/06/15 10:22:07;;;;;;;0.15;0.15;;;;;;;31.87;34.67;96870.06;4952111;28;20065;-39
2021/06/15 10:24:33;;;;;;;0.43;0.30;;;;;;;31.88;35.28;96872.63;4954207;28;20031;-36
2021/06/15 10:26:59;;;;;;;0.40;0.20;;;;;;;31.89;34.92;96863.72;4957366;28;20999;-38
2021/06/15 10:29:25;;;;;;;0.20;0.20;;;;;;;31.90;34.97;96864.56;4956127;28;20080;-29
2021/06/15 10:31:52;;;;;;;0.17;0.13;;;;;;;31.92;34.90;96870.56;4941607;28;20039;-35
2021/06/15 10:35:01;;;;;;;0.60;0.30;;;;;;;31.93;35.38;96872.28;4943291;28;20110;-34
2021/06/15 10:37:33;;;;;;;0.30;0.20;;;;;;;31.94;34.90;96864.22;4953882;28;20771;-38
2021/06/15 10:40:21;;;;;;;0.30;0.30;;;;;;;31.94;34.90;96858.94;4954925;28;20402;-34
2021/06/15 10:43:26;;;;;;;0.28;0.28;;;;;;;31.94;34.91;96863.38;4953241;28;20446;-36
2021/06/15 10:45:53;;;;;;;0.30;0.30;;;;;;;31.96;34.73;96861.44;4947118;28;20045;-38
2021/06/15 10:48:20;;;;;;;0.20;0.20;;;;;;;31.96;35.18;96855.31;4958910;28;20208;-34
2021/06/15 10:50:46;;;;;;;0.20;0.20;;;;;;;31.97;34.75;96860.50;4952376;28;20030;-40
2021/06/15 10:53:13;;;;;;;0.32;0.32;;;;;;;31.99;34.85;96855.03;4955471;28;20048;-33
2021/06/15 10:55:50;;;;;;;0.30;0.30;;;;;;;31.99;35.20;96857.69;4956033;28;20034;-30
2021/06/15 10:58:34;;;;;;;0.30;0.30;;;;;;;32.00;35.44;96857.56;4956699;28;20038;-36
2021/06/15 11:01:27;;;;;;;0.38;0.25;;;;;;;32.01;35.60;96853.13;4953751;28;20042;-34
2021/06/15 11:03:56;;;;;;;0.30;0.30;;;;;;;32.01;34.81;96848.69;4950467;28;20029;-36
2021/06/15 11:06:37;;;;;;;0.38;0.30;;;;;;;32.01;35.05;96846.03;4957291;28;20031;-33
2021/06/15 11:09:02;;;;;;;0.40;0.40;;;;;;;32.00;34.93;96848.81;4939925;28;20441;-34
2021/06/15 11:11:27;;;;;;;0.30;0.30;;;;;;;32.03;35.37;96852.03;4955757;28;20041;-35
2021/06/15 11:13:54;;;;;;;0.45;0.30;;;;;;;32.04;35.49;96847.59;4952411;28;20035;-36
2021/06/15 11:16:40;;;;;;;0.30;0.30;;;;;;;32.04;35.61;96851.06;4952641;28;20224;-35
2021/06/15 11:19:10;;;;;;;0.30;0.30;;;;;;;32.05;35.36;96849.28;4952614;28;20026;-30
2021/06/15 11:22:09;;;;;;;0.25;0.25;;;;;;;32.05;35.63;96850.09;4939068;28;20039;-36
2021/06/15 11:25:23;;;;;;;0.35;0.20;;;;;;;32.07;35.04;96856.16;4955500;28;20539;-38
2021/06/15 11:27:27;;;;;;;0.25;0.25;;;;;;;32.06;35.58;96846.50;4950035;28;20039;-31
2021/06/15 11:29:53;;;;;;;0.30;0.30;;;;;;;32.09;35.81;96848.06;4951951;28;20712;-32
2021/06/15 11:32:19;;;;;;;0.20;0.20;;;;;;;32.08;35.70;96841.09;4938998;28;20120;-34
2021/06/15 11:34:48;;;;;;;0.17;0.17;;;;;;;32.10;35.20;96841.81;4953860;28;20042;-36
2021/06/15 11:37:23;;;;;;;0.20;0.20;;;;;;;32.10;35.53;96844.47;4951969;28;20041;-35
2021/06/15 11:39:50;;;;;;;0.20;0.20;;;;;;;32.11;35.71;96842.66;4953210;28;20035;-38
2021/06/15 11:42:30;;;;;;;0.30;0.30;;;;;;;32.13;35.12;96843.38;4954441;28;20026;-35